Newport, NY

2:25 AM EST on November 19, 2019 (GMT -0500)
Farrington Rd | | Change Station
Active Advisory: Winter Weather Advisory

Elev 960 ft 43.17 °N, 74.98 °W | Updated 9 minutes ago

Rain
Rain
33.7 °F
Feels Like 34 °F
N
0
Wind Variable Wind from SW
Gusts 0.0 mph

Today
High -- | Low -- °F
--% Chance of Precip.
Yesterday
High -- | Low -- °F
Precip. -- in
Pressure 29.75 in
Visibility 4.0 miles
Clouds Few 600 ft
Overcast 2000 ft
Windchill 34 °F
Dew Point 33 °F
Humidity 98%
Rainfall 0.12 in
Snow Depth Not available.
6:57 AM 4:32 PM
Waning Gibbous, 56% visible
METAR KRME 190653Z AUTO 00000KT 4SM -RA BR FEW006 OVC020 02/02 A2974 RMK AO2 SLP072 P0003 T00170017 $
Pressure 29.75 in
Visibility 4.0 miles
Clouds Few 600 ft
Overcast 2000 ft
Windchill 34 °F
Dew Point 33 °F
Humidity 98%
Rainfall 0.12 in
Snow Depth Not available.
6:57 AM 4:32 PM
Waning Gibbous, 56% visible
METAR KRME 190653Z AUTO 00000KT 4SM -RA BR FEW006 OVC020 02/02 A2974 RMK AO2 SLP072 P0003 T00170017 $

Get Your Daily Forecast Email!

Thanks for signing up!

Be on the lookout for a verification email in your inbox.

You'll start receiving severe weather alerts in your inbox..

×

10-Day Weather Forecast

Almanac

Astronomy

Nov. 19, 2019 Rise Set
Actual Time
Civil Twilight
Nautical Twilight
Astronomical Twilight
Moon
Length of Visible Light
Length of Day
Tomorrow will be .
, % of the Moon is Illuminated

Today's Extremes

State Highs State Lows

Community

WunderPhotos

Category 6

Welcome to Category 6. This is the collective home for Weather Underground's featured writeups by Dr. Jeff Masters (right), Bob Henson (left), Chris Burt, and other regular contributors.

Nearby

Air Quality

  Air Quality AQ Index Pollutant
Not available.

Snow Depth

Station Depth Elevation

Earthquake Activity

City Distance Mag. Time & Date
Minimum magnitude displayed is 2.5.

Coastal Water Temperatures

Place Temperature

Stations

Nearby Weather Stations

Station Location Temp. Windchill Dew Point Humidity Wind Precip. Elev Updated Type
                   

Watches & Warnings

Winter Weather Advisory
Issued: 6:41 PM EST Nov. 18, 2019 – National Weather Service

... Winter Weather Advisory remains in effect until 10 am EST
Tuesday...

* what... mixed precipitation expected. Snow accumulations of up
to two inches and ice accumulations of around one tenth of an
inch.

* Where... southern Vermont, the western Mohawk Valley, the western
and southern Adirondacks, the Taconics, and the Lake George
Saratoga region in eastern New York, Berkshire County in
Massachusetts, and northern Litchfield County Connecticut.

* When... until 10 am EST Tuesday.

* Impacts... plan on slippery Road conditions. The hazardous
conditions could impact the Tuesday morning commute.

Precautionary/preparedness actions...

Slow down and use caution while traveling.